Time;durP1;ratioP1;P1;durP2;ratioP2;P2;SDS_P1;SDS_P2;PMS_P1;PMS_P2;Temp;Humidity;BMP_temperature;BMP_pressure;BME280_temperature;BME280_humidity;BME280_pressure;Samples;Min_cycle;Max_cycle;Signal;HPM_P1;HPM_P2
2022/01/13 00:01:46;;;;;;;16.95;7.95;;;1.40;90.90;;;;;;5010731;28;20052;-74
2022/01/13 00:04:51;;;;;;;26.30;9.63;;;1.50;90.70;;;;;;5009804;28;20040;-74
2022/01/13 00:07:57;;;;;;;17.23;6.57;;;1.50;91.20;;;;;;5010673;28;20064;-74
2022/01/13 00:11:01;;;;;;;13.65;5.68;;;1.40;91.70;;;;;;5010551;28;20048;-74
2022/01/13 00:26:42;;;;;;;10.55;5.20;;;1.30;91.10;;;;;;5010722;28;20485;-74
2022/01/13 00:29:47;;;;;;;11.70;5.97;;;1.30;90.60;;;;;;5009554;28;20057;-74
2022/01/13 00:32:51;;;;;;;14.27;5.93;;;1.30;90.10;;;;;;5009628;28;20176;-74
2022/01/13 00:35:59;;;;;;;10.50;5.10;;;1.20;91.00;;;;;;5010719;28;20049;-74
2022/01/13 00:39:05;;;;;;;9.88;5.00;;;1.10;91.00;;;;;;5008736;28;20049;-74
2022/01/13 00:42:09;;;;;;;11.50;5.00;;;1.10;91.00;;;;;;5010193;28;20042;-74
2022/01/13 00:45:14;;;;;;;15.95;5.70;;;1.10;89.10;;;;;;5010356;28;20046;-74
2022/01/13 00:48:18;;;;;;;10.80;4.30;;;1.40;88.90;;;;;;5008668;28;20057;-74
2022/01/13 00:51:24;;;;;;;9.02;4.97;;;1.50;87.30;;;;;;5010189;28;20061;-74
2022/01/13 00:54:29;;;;;;;11.77;5.28;;;1.60;87.60;;;;;;5010337;28;20038;-74
2022/01/13 00:57:33;;;;;;;10.68;5.13;;;1.40;89.80;;;;;;5010063;28;20053;-74
2022/01/13 01:00:37;;;;;;;9.73;4.47;;;1.50;86.60;;;;;;5010159;28;20045;-74
2022/01/13 01:03:41;;;;;;;17.17;6.95;;;1.50;88.50;;;;;;5009794;28;20042;-74
2022/01/13 01:06:47;;;;;;;12.80;5.68;;;1.50;88.10;;;;;;5010122;28;20496;-74
2022/01/13 01:09:51;;;;;;;10.73;4.63;;;1.40;90.10;;;;;;5009343;28;20524;-75
2022/01/13 01:12:55;;;;;;;9.73;4.85;;;1.60;86.80;;;;;;5009947;28;20056;-74
2022/01/13 01:16:04;;;;;;;12.63;6.10;;;1.60;89.80;;;;;;5012601;28;20373;-74
2022/01/13 01:19:11;;;;;;;13.98;5.75;;;1.40;90.20;;;;;;5012741;28;20041;-74
2022/01/13 01:25:41;;;;;;;10.90;5.05;;;1.30;89.90;;;;;;5013498;28;20044;-74
2022/01/13 01:28:49;;;;;;;9.50;4.80;;;1.30;90.30;;;;;;5013269;28;20057;-74
2022/01/13 01:31:56;;;;;;;12.43;5.20;;;1.20;90.20;;;;;;5013039;28;20038;-74
2022/01/13 01:35:03;;;;;;;9.98;4.78;;;1.30;88.50;;;;;;5013189;28;20484;-75
2022/01/13 01:38:07;;;;;;;13.60;6.05;;;1.40;87.90;;;;;;5012896;28;20046;-74
2022/01/13 01:41:12;;;;;;;10.50;4.93;;;1.40;90.40;;;;;;5013497;28;20049;-74
2022/01/13 01:44:21;;;;;;;11.27;4.57;;;1.20;90.10;;;;;;5012908;28;20045;-74
2022/01/13 01:47:27;;;;;;;9.50;4.43;;;1.10;90.00;;;;;;5013250;28;20069;-74
2022/01/13 01:50:36;;;;;;;17.13;5.72;;;1.00;90.50;;;;;;5013122;28;20034;-74
2022/01/13 01:53:40;;;;;;;9.77;5.10;;;0.90;90.10;;;;;;5012502;28;20056;-73
2022/01/13 01:56:45;;;;;;;9.45;4.55;;;0.90;90.80;;;;;;5013006;28;20041;-74
2022/01/13 01:59:49;;;;;;;9.15;4.38;;;0.90;90.40;;;;;;5012289;28;20042;-75
2022/01/13 02:02:55;;;;;;;8.35;4.38;;;0.90;90.60;;;;;;5012491;28;20038;-74
2022/01/13 02:06:00;;;;;;;12.07;5.32;;;0.90;90.90;;;;;;5012423;28;20050;-75
2022/01/13 02:09:07;;;;;;;11.13;5.20;;;0.80;90.60;;;;;;5012277;28;20508;-75
2022/01/13 02:12:13;;;;;;;7.97;4.28;;;1.00;90.00;;;;;;5012757;28;20045;-74
2022/01/13 02:15:35;;;;;;;7.97;4.57;;;1.10;90.20;;;;;;5012725;28;20046;-75
2022/01/13 02:18:39;;;;;;;13.35;5.00;;;1.40;86.90;;;;;;5011764;28;20034;-74
2022/01/13 02:21:44;;;;;;;9.73;5.00;;;2.00;85.40;;;;;;5012598;28;20484;-74
2022/01/13 02:24:50;;;;;;;8.35;4.80;;;1.80;86.50;;;;;;5012224;28;20034;-75
2022/01/13 02:27:54;;;;;;;9.77;4.93;;;1.60;86.70;;;;;;5011677;28;20037;-74
2022/01/13 02:30:59;;;;;;;17.73;6.38;;;1.60;86.90;;;;;;5012311;28;20038;-74
2022/01/13 02:34:04;;;;;;;16.38;6.60;;;1.40;87.90;;;;;;5012023;28;20045;-75
2022/01/13 02:37:08;;;;;;;22.90;6.72;;;1.20;88.80;;;;;;5012337;28;20045;-75
2022/01/13 02:40:15;;;;;;;18.63;5.70;;;1.20;89.10;;;;;;5012089;28;20053;-74
2022/01/13 02:43:20;;;;;;;9.18;3.53;;;1.00;90.30;;;;;;5011795;28;20200;-74
2022/01/13 02:49:41;;;;;;;9.90;5.05;;;1.50;88.60;;;;;;5011303;28;20056;-73
2022/01/13 02:52:45;;;;;;;11.90;5.35;;;1.10;89.80;;;;;;5011582;28;20465;-75
2022/01/13 02:55:51;;;;;;;12.70;5.78;;;1.20;87.60;;;;;;5011912;28;20107;-75
2022/01/13 02:58:56;;;;;;;11.48;4.63;;;1.30;88.80;;;;;;5011061;28;20045;-75
2022/01/13 03:02:00;;;;;;;12.40;5.07;;;1.20;88.90;;;;;;5011915;28;20045;-75
2022/01/13 03:05:11;;;;;;;10.90;4.57;;;1.10;90.00;;;;;;5011466;28;20053;-75
2022/01/13 03:08:15;;;;;;;15.05;5.40;;;1.00;90.20;;;;;;5011096;28;20400;-75
2022/01/13 03:11:18;;;;;;;9.23;4.07;;;0.90;89.40;;;;;;5010534;28;20053;-73
2022/01/13 03:14:23;;;;;;;9.10;4.13;;;0.80;90.80;;;;;;5011326;28;20038;-75
2022/01/13 03:17:27;;;;;;;6.50;3.88;;;0.80;90.40;;;;;;5011432;28;20049;-75
2022/01/13 03:20:32;;;;;;;15.63;6.60;;;1.00;88.30;;;;;;5011204;28;20037;-73
2022/01/13 03:23:38;;;;;;;9.43;4.07;;;1.20;89.60;;;;;;5011181;28;20041;-74
2022/01/13 03:26:44;;;;;;;9.00;4.45;;;1.30;88.20;;;;;;5011060;28;20050;-75
2022/01/13 03:29:48;;;;;;;9.32;4.43;;;1.50;86.30;;;;;;5010640;28;20253;-74
2022/01/13 03:32:53;;;;;;;9.52;3.80;;;1.70;88.00;;;;;;5011111;28;20042;-75
2022/01/13 03:35:59;;;;;;;8.02;3.97;;;1.50;87.30;;;;;;5010966;28;20034;-74
2022/01/13 03:39:06;;;;;;;11.23;3.70;;;1.30;89.30;;;;;;5010184;28;20037;-74
2022/01/13 03:42:11;;;;;;;8.55;4.00;;;1.30;88.50;;;;;;5010731;28;20041;-74
2022/01/13 03:45:15;;;;;;;9.77;4.10;;;1.40;86.60;;;;;;5010480;28;20065;-75
2022/01/13 03:48:19;;;;;;;8.98;4.03;;;1.30;88.00;;;;;;5010439;28;20050;-74
2022/01/13 03:51:23;;;;;;;6.72;3.40;;;1.70;85.40;;;;;;5010568;28;20046;-73
2022/01/13 03:54:34;;;;;;;9.30;3.60;;;1.80;86.60;;;;;;5010546;28;20046;-74
2022/01/13 03:58:03;;;;;;;12.63;4.60;;;1.60;86.20;;;;;;5010907;28;20218;-74
2022/01/13 04:01:29;;;;;;;9.82;3.35;;;1.60;85.90;;;;;;5009912;28;20053;-74
2022/01/13 04:04:39;;;;;;;8.10;3.75;;;1.50;86.60;;;;;;5010949;28;20030;-74
2022/01/13 04:07:43;;;;;;;15.98;5.15;;;1.40;88.00;;;;;;5010921;28;20037;-74
2022/01/13 04:10:50;;;;;;;7.22;3.33;;;1.20;88.80;;;;;;5010627;28;20389;-74
2022/01/13 04:14:01;;;;;;;7.35;3.30;;;1.10;88.00;;;;;;5011053;28;20038;-74
2022/01/13 04:17:05;;;;;;;7.13;3.13;;;1.40;83.90;;;;;;5010579;28;20038;-75
2022/01/13 04:20:10;;;;;;;6.68;3.20;;;1.60;81.50;;;;;;5009836;28;20041;-74
2022/01/13 04:23:14;;;;;;;7.45;2.95;;;1.90;83.50;;;;;;5010502;28;20034;-74
2022/01/13 04:26:19;;;;;;;8.73;3.33;;;1.70;83.30;;;;;;5010530;28;20037;-74
2022/01/13 04:29:35;;;;;;;4.97;2.88;;;1.60;84.00;;;;;;5009954;28;20375;-75
2022/01/13 04:32:39;;;;;;;7.97;3.08;;;1.60;80.30;;;;;;5010452;28;20481;-74
2022/01/13 04:35:44;;;;;;;6.97;3.33;;;1.90;79.50;;;;;;5010338;28;20462;-74
2022/01/13 04:38:48;;;;;;;7.13;3.50;;;2.00;79.20;;;;;;5010381;28;20042;-75
2022/01/13 04:41:53;;;;;;;6.53;3.17;;;2.00;78.90;;;;;;5010318;28;20034;-75
2022/01/13 04:44:58;;;;;;;6.82;2.83;;;2.00;78.50;;;;;;5009339;28;20037;-75
2022/01/13 04:48:02;;;;;;;5.53;2.95;;;1.90;78.10;;;;;;5009941;28;20050;-75
2022/01/13 04:51:06;;;;;;;5.85;3.60;;;1.90;79.20;;;;;;5013245;28;20030;-75
2022/01/13 04:54:11;;;;;;;7.28;3.30;;;1.70;81.70;;;;;;5013922;28;20042;-75
2022/01/13 04:57:17;;;;;;;6.50;2.97;;;1.70;78.20;;;;;;5014069;28;20034;-75
2022/01/13 05:00:22;;;;;;;6.80;3.30;;;1.80;82.10;;;;;;5013565;28;20497;-74
2022/01/13 05:03:27;;;;;;;6.18;3.00;;;1.60;82.90;;;;;;5013792;28;20034;-74
2022/01/13 05:06:31;;;;;;;5.55;3.00;;;1.50;80.70;;;;;;5013880;28;20501;-74
2022/01/13 05:09:35;;;;;;;10.40;4.32;;;1.40;84.10;;;;;;5013410;28;20042;-75
2022/01/13 05:12:44;;;;;;;7.78;4.25;;;1.40;85.90;;;;;;5013533;28;20037;-74
2022/01/13 05:15:49;;;;;;;7.97;3.70;;;1.40;83.80;;;;;;5014024;28;20046;-74
2022/01/13 05:19:07;;;;;;;5.85;3.30;;;1.20;85.90;;;;;;5013631;28;20042;-74
2022/01/13 05:25:17;;;;;;;7.00;3.50;;;0.80;86.20;;;;;;5013833;28;20046;-74
2022/01/13 05:28:21;;;;;;;7.00;3.30;;;0.70;87.50;;;;;;5013381;28;20050;-74
2022/01/13 05:31:25;;;;;;;9.52;3.20;;;0.70;87.40;;;;;;5012618;28;20037;-74
2022/01/13 05:34:29;;;;;;;6.97;3.45;;;0.80;89.30;;;;;;5013481;28;20046;-74
2022/01/13 05:37:33;;;;;;;9.25;3.53;;;0.90;90.10;;;;;;5013300;28;20038;-74
2022/01/13 05:40:38;;;;;;;7.53;3.83;;;0.90;90.40;;;;;;5013170;28;20038;-74
2022/01/13 05:43:42;;;;;;;9.48;3.38;;;0.80;90.50;;;;;;5012716;28;20038;-74
2022/01/13 05:46:48;;;;;;;8.23;3.72;;;0.70;89.80;;;;;;5012590;28;20477;-74
2022/01/13 05:49:52;;;;;;;6.63;3.05;;;0.70;89.90;;;;;;5012520;28;20041;-74
2022/01/13 05:52:57;;;;;;;10.48;3.70;;;0.80;90.50;;;;;;5012978;28;20485;-74
2022/01/13 05:56:01;;;;;;;5.70;3.58;;;0.80;90.80;;;;;;5012780;28;20049;-74
2022/01/13 05:59:05;;;;;;;9.07;3.55;;;0.80;91.10;;;;;;5012306;28;20042;-74
2022/01/13 06:02:09;;;;;;;8.70;3.28;;;1.00;91.10;;;;;;5012515;28;20042;-74
2022/01/13 06:05:14;;;;;;;8.70;3.75;;;1.10;91.60;;;;;;5012480;28;20041;-74
2022/01/13 06:08:18;;;;;;;7.63;3.15;;;1.20;91.60;;;;;;5012333;28;20033;-74
2022/01/13 06:11:23;;;;;;;6.45;3.28;;;1.30;91.50;;;;;;5012438;28;20026;-74
2022/01/13 06:14:27;;;;;;;7.82;3.55;;;1.20;92.90;;;;;;5012218;28;20033;-74
2022/01/13 06:17:32;;;;;;;8.27;3.60;;;1.20;92.90;;;;;;5013013;28;20034;-74
2022/01/13 06:20:35;;;;;;;10.32;3.60;;;1.10;92.90;;;;;;5013199;28;20351;-74
2022/01/13 06:23:39;;;;;;;7.82;3.53;;;1.00;92.70;;;;;;5012431;28;20596;-74
2022/01/13 06:26:43;;;;;;;7.00;3.60;;;1.30;92.70;;;;;;5013155;28;20358;-74
2022/01/13 06:29:52;;;;;;;10.18;4.15;;;1.40;93.60;;;;;;5014444;28;20050;-74
2022/01/13 06:32:56;;;;;;;7.47;3.63;;;1.40;94.60;;;;;;5011561;28;20579;-74
2022/01/13 06:36:03;;;;;;;12.85;4.22;;;1.40;94.50;;;;;;5011880;28;20037;-74
2022/01/13 06:39:08;;;;;;;10.85;4.13;;;1.30;94.30;;;;;;5011187;28;20052;-74
2022/01/13 06:42:13;;;;;;;10.48;3.08;;;1.30;94.30;;;;;;5012065;28;20041;-75
2022/01/13 06:45:17;;;;;;;8.93;3.65;;;1.30;94.10;;;;;;5012045;28;20045;-74
2022/01/13 06:48:21;;;;;;;14.18;5.03;;;1.30;93.00;;;;;;5011273;28;20050;-74
2022/01/13 06:51:25;;;;;;;8.60;4.05;;;1.30;93.80;;;;;;5011709;28;20061;-74
2022/01/13 06:54:29;;;;;;;17.33;6.63;;;1.10;94.60;;;;;;5011745;28;20041;-74
2022/01/13 06:57:34;;;;;;;16.20;5.90;;;1.10;95.10;;;;;;5011778;28;20048;-74
2022/01/13 07:00:38;;;;;;;8.27;4.15;;;1.00;95.30;;;;;;5011774;28;20053;-74
2022/01/13 07:03:42;;;;;;;8.20;4.47;;;1.40;94.00;;;;;;5011839;28;20469;-74
2022/01/13 07:06:46;;;;;;;10.30;4.65;;;1.40;95.00;;;;;;5026240;28;20034;-74
2022/01/13 07:09:50;;;;;;;14.75;5.55;;;1.50;94.90;;;;;;5020314;28;20052;-74
2022/01/13 07:12:55;;;;;;;25.20;10.80;;;1.60;94.90;;;;;;5024910;28;20044;-74
2022/01/13 07:16:00;;;;;;;16.77;6.97;;;1.70;94.80;;;;;;5028445;28;20056;-74
2022/01/13 07:19:05;;;;;;;17.52;7.25;;;2.60;95.00;;;;;;5025955;28;20495;-74
2022/01/13 07:22:09;;;;;;;12.40;6.28;;;5.50;92.60;;;;;;5026517;28;20488;-75
2022/01/13 07:25:15;;;;;;;17.35;6.78;;;8.50;86.10;;;;;;5029077;28;20044;-75
2022/01/13 07:28:20;;;;;;;12.25;6.53;;;10.50;79.20;;;;;;5015637;28;20429;-75
2022/01/13 07:31:23;;;;;;;12.50;6.65;;;12.30;74.30;;;;;;5023094;28;20483;-74
2022/01/13 07:34:27;;;;;;;9.60;5.05;;;14.10;70.20;;;;;;5022834;28;20543;-76
2022/01/13 07:37:31;;;;;;;12.40;6.15;;;11.60;67.60;;;;;;5013463;28;20040;-76
2022/01/13 07:40:35;;;;;;;15.02;5.88;;;13.00;69.80;;;;;;5022104;28;20044;-76
2022/01/13 07:43:43;;;;;;;9.50;3.83;;;14.70;67.60;;;;;;5016904;28;20503;-76
2022/01/13 07:46:47;;;;;;;8.38;4.60;;;17.00;64.00;;;;;;5017896;28;20048;-76
2022/01/13 07:49:51;;;;;;;12.50;7.15;;;14.30;62.40;;;;;;5022497;28;20499;-76
2022/01/13 07:52:55;;;;;;;7.68;4.85;;;12.50;64.70;;;;;;5012197;28;20060;-77
2022/01/13 07:55:59;;;;;;;15.30;7.57;;;15.60;64.70;;;;;;5014175;28;20044;-77
2022/01/13 07:59:03;;;;;;;26.45;14.57;;;15.50;61.60;;;;;;5012166;28;20053;-76
2022/01/13 08:02:07;;;;;;;19.77;9.35;;;14.00;62.20;;;;;;5011569;28;20041;-76
2022/01/13 08:05:12;;;;;;;20.20;7.97;;;15.60;61.50;;;;;;5024718;28;20060;-76
2022/01/13 08:08:16;;;;;;;37.42;17.15;;;16.80;59.70;;;;;;5012398;28;20045;-77
2022/01/13 08:11:20;;;;;;;15.25;8.48;;;17.30;57.20;;;;;;5013549;28;20405;-76
2022/01/13 08:14:24;;;;;;;21.20;10.15;;;18.00;56.70;;;;;;5025113;28;20108;-76
2022/01/13 08:20:51;;;;;;;6.95;3.70;;;19.70;55.20;;;;;;5012456;28;20037;-76
2022/01/13 08:23:55;;;;;;;6.03;3.47;;;20.20;55.10;;;;;;5019246;28;20393;-76
2022/01/13 08:26:59;;;;;;;6.20;3.85;;;21.70;52.90;;;;;;5015144;28;20488;-76
2022/01/13 08:30:05;;;;;;;10.90;6.43;;;20.10;50.00;;;;;;5015965;28;20044;-76
2022/01/13 08:33:09;;;;;;;12.70;6.65;;;13.30;59.40;;;;;;5017074;28;20434;-76
2022/01/13 08:36:13;;;;;;;11.15;6.15;;;13.80;61.70;;;;;;5020150;28;20508;-76
2022/01/13 08:39:17;;;;;;;20.17;8.30;;;17.10;58.20;;;;;;5019961;28;20056;-75
2022/01/13 08:42:22;;;;;;;9.02;4.68;;;19.00;55.60;;;;;;5033673;28;20041;-76
2022/01/13 08:45:26;;;;;;;8.45;4.28;;;20.60;54.10;;;;;;5018775;28;20048;-76
2022/01/13 08:48:32;;;;;;;7.53;4.40;;;22.80;51.60;;;;;;5014308;28;20041;-74
2022/01/13 08:51:37;;;;;;;7.10;3.70;;;23.60;49.60;;;;;;5014720;28;20385;-75
2022/01/13 08:54:45;;;;;;;20.30;7.40;;;25.40;49.10;;;;;;5019157;28;20049;-76
2022/01/13 08:57:49;;;;;;;20.10;9.25;;;26.10;46.00;;;;;;5019496;28;20484;-76
2022/01/13 09:00:55;;;;;;;6.88;3.72;;;25.80;47.40;;;;;;5014265;28;20041;-76
2022/01/13 09:03:59;;;;;;;7.90;3.72;;;26.30;46.70;;;;;;5016673;28;20055;-76
2022/01/13 09:07:03;;;;;;;5.22;3.42;;;27.80;46.10;;;;;;5014192;28;20040;-76
2022/01/13 09:10:10;;;;;;;7.35;3.80;;;29.10;45.90;;;;;;5032965;28;20048;-76
2022/01/13 09:13:15;;;;;;;7.68;3.75;;;29.70;43.60;;;;;;5020488;28;20053;-76
2022/01/13 09:16:19;;;;;;;8.57;4.78;;;28.00;43.60;;;;;;5013780;28;20520;-76
2022/01/13 09:19:24;;;;;;;7.97;5.28;;;20.80;49.10;;;;;;5027325;28;20495;-76
2022/01/13 09:22:28;;;;;;;5.72;4.40;;;22.30;50.20;;;;;;5026758;28;20499;-76
2022/01/13 09:25:33;;;;;;;5.57;3.70;;;25.20;49.30;;;;;;5013985;28;20037;-76
2022/01/13 09:28:37;;;;;;;6.05;3.38;;;27.30;47.00;;;;;;5027176;28;20044;-73
2022/01/13 09:31:42;;;;;;;6.43;3.15;;;29.50;44.60;;;;;;5017168;28;20041;-74
2022/01/13 09:34:47;;;;;;;6.55;2.83;;;31.30;43.40;;;;;;5020523;28;20041;-76
2022/01/13 09:37:52;;;;;;;7.40;2.60;;;32.20;42.60;;;;;;5028878;28;20064;-76
2022/01/13 09:40:56;;;;;;;3.80;2.72;;;32.10;40.70;;;;;;5014784;28;20048;-76
2022/01/13 09:44:04;;;;;;;11.65;8.25;;;30.90;40.80;;;;;;5030180;28;20040;-76
2022/01/13 09:47:08;;;;;;;6.47;4.03;;;30.70;40.00;;;;;;5022922;28;20057;-73
2022/01/13 09:50:16;;;;;;;5.20;3.50;;;23.20;44.10;;;;;;5024633;28;20053;-75
2022/01/13 09:53:20;;;;;;;5.22;3.30;;;24.90;44.30;;;;;;5014156;28;20413;-75
2022/01/13 09:56:24;;;;;;;5.78;3.15;;;27.20;44.40;;;;;;5020308;28;20516;-73
2022/01/13 09:59:28;;;;;;;5.13;3.05;;;29.40;43.10;;;;;;5019690;28;20048;-75
2022/01/13 10:02:32;;;;;;;5.93;3.17;;;30.30;41.60;;;;;;5024910;28;20044;-75
2022/01/13 10:05:47;;;;;;;5.55;2.85;;;30.90;41.30;;;;;;5028990;28;20487;-75
2022/01/13 10:08:54;;;;;;;9.15;2.80;;;32.40;41.10;;;;;;5027669;28;20381;-76
2022/01/13 10:11:58;;;;;;;4.65;2.60;;;33.50;40.30;;;;;;5017099;28;20037;-74
2022/01/13 10:18:12;;;;;;;5.05;3.40;;;30.40;39.70;;;;;;5017465;28;20033;-74
2022/01/13 10:21:18;;;;;;;4.15;2.80;;;29.20;38.70;;;;;;5027094;28;20048;-76
2022/01/13 10:24:25;;;;;;;4.78;3.03;;;30.60;40.70;;;;;;5025271;28;20040;-76
2022/01/13 10:27:32;;;;;;;4.45;2.55;;;32.00;40.40;;;;;;5031351;28;20057;-76
2022/01/13 10:30:41;;;;;;;4.22;2.72;;;31.80;40.40;;;;;;5014944;28;20053;-76
2022/01/13 10:33:46;;;;;;;5.80;3.30;;;31.80;40.40;;;;;;5032121;28;20128;-76
2022/01/13 10:37:03;;;;;;;3.80;3.08;;;32.50;39.50;;;;;;5016455;28;20049;-76
2022/01/13 10:40:15;;;;;;;5.28;3.17;;;33.70;38.80;;;;;;5020266;28;20036;-76
2022/01/13 10:43:23;;;;;;;5.95;3.10;;;30.30;39.40;;;;;;5029192;28;20044;-75
2022/01/13 10:47:03;;;;;;;3.67;2.97;;;31.20;40.00;;;;;;5013572;28;20049;-76
2022/01/13 10:50:13;;;;;;;4.80;3.40;;;33.30;41.10;;;;;;5027603;28;20408;-76
2022/01/13 10:53:21;;;;;;;4.97;2.83;;;33.40;38.20;;;;;;5032154;28;20045;-76
2022/01/13 10:56:26;;;;;;;6.75;4.15;;;26.60;37.80;;;;;;5028501;28;20053;-75
2022/01/13 10:59:34;;;;;;;5.30;3.20;;;24.90;43.00;;;;;;5031563;28;20387;-75
2022/01/13 11:02:38;;;;;;;5.13;3.35;;;27.00;41.50;;;;;;5031909;28;20496;-76
2022/01/13 11:05:52;;;;;;;4.93;2.67;;;28.00;41.30;;;;;;5026758;28;20052;-76
2022/01/13 11:08:57;;;;;;;5.25;2.80;;;29.40;39.60;;;;;;5022427;28;20060;-75
2022/01/13 11:12:01;;;;;;;4.15;2.55;;;29.00;40.50;;;;;;5024529;28;20385;-76
2022/01/13 11:15:13;;;;;;;3.00;1.83;;;27.20;42.50;;;;;;5008672;28;20037;-76
2022/01/13 11:18:27;;;;;;;5.13;3.78;;;27.50;39.60;;;;;;5020563;28;20048;-74
2022/01/13 11:21:31;;;;;;;2.80;2.10;;;25.70;42.00;;;;;;5014863;28;20049;-74
2022/01/13 11:24:37;;;;;;;2.20;1.70;;;26.60;42.60;;;;;;5023368;28;20060;-75
2022/01/13 11:27:43;;;;;;;3.63;2.63;;;28.00;40.40;;;;;;5022624;28;20064;-75
2022/01/13 11:30:50;;;;;;;9.27;4.07;;;28.40;40.10;;;;;;5014175;28;20049;-76
2022/01/13 11:33:54;;;;;;;7.97;4.10;;;28.10;40.30;;;;;;5019457;28;20057;-76
2022/01/13 11:37:00;;;;;;;14.80;7.43;;;28.20;40.90;;;;;;5016365;28;20046;-75
2022/01/13 11:40:05;;;;;;;3.45;1.95;;;27.60;42.00;;;;;;5022511;28;20056;-75
2022/01/13 11:43:25;;;;;;;3.20;1.75;;;28.70;41.40;;;;;;5027606;28;20046;-75
2022/01/13 11:46:29;;;;;;;2.03;1.20;;;30.80;39.60;;;;;;5029174;28;20048;-74
2022/01/13 11:52:45;;;;;;;2.00;1.20;;;28.20;40.20;;;;;;5023122;28;20049;-74
2022/01/13 11:55:55;;;;;;;1.95;1.55;;;26.40;41.10;;;;;;5019847;28;20049;-74
2022/01/13 11:58:59;;;;;;;3.25;1.67;;;27.50;41.70;;;;;;5016242;28;20048;-75
2022/01/13 12:02:22;;;;;;;2.72;1.30;;;28.30;41.90;;;;;;5025511;28;20040;-75
2022/01/13 12:05:29;;;;;;;2.20;1.40;;;29.20;40.70;;;;;;5011446;28;20061;-72
2022/01/13 12:08:34;;;;;;;1.60;1.20;;;27.50;40.80;;;;;;5011686;28;20048;-72
2022/01/13 12:11:57;;;;;;;2.20;1.40;;;27.00;41.20;;;;;;5017611;28;20053;-73
2022/01/13 12:15:18;;;;;;;2.03;1.58;;;27.10;41.10;;;;;;5025262;28;20045;-74
2022/01/13 12:19:05;;;;;;;3.83;1.40;;;27.10;41.50;;;;;;5013290;28;20389;-74
2022/01/13 12:22:37;;;;;;;1.75;1.17;;;28.10;41.50;;;;;;5024337;28;20396;-75
2022/01/13 12:25:44;;;;;;;1.77;1.27;;;27.10;41.50;;;;;;5018664;28;20982;-76
2022/01/13 12:29:15;;;;;;;2.15;1.35;;;27.20;41.40;;;;;;5021253;28;20048;-76
2022/01/13 12:32:37;;;;;;;;;;;26.70;40.60;;;;;;5013784;28;20495;-75
2022/01/13 12:35:44;;;;;;;2.63;1.48;;;26.40;42.20;;;;;;5024238;28;19916;-73
2022/01/13 12:39:00;;;;;;;3.15;1.27;;;27.00;41.60;;;;;;5023753;28;20377;-76
2022/01/13 12:42:14;;;;;;;2.17;1.23;;;27.60;40.60;;;;;;5018351;28;20045;-76
2022/01/13 12:45:28;;;;;;;2.10;1.33;;;26.90;40.80;;;;;;5022251;28;20041;-76
2022/01/13 12:48:32;;;;;;;3.67;1.73;;;22.50;39.90;;;;;;5021558;28;20056;-76
2022/01/13 12:51:36;;;;;;;3.03;1.42;;;23.10;42.40;;;;;;5019337;28;20053;-76
2022/01/13 12:54:46;;;;;;;1.85;1.30;;;24.10;41.90;;;;;;5022575;28;20056;-75
2022/01/13 12:57:53;;;;;;;4.20;1.88;;;23.20;41.10;;;;;;5028256;28;20048;-75
2022/01/13 13:01:04;;;;;;;2.08;1.30;;;22.10;42.60;;;;;;5028269;28;20044;-75
2022/01/13 13:04:11;;;;;;;5.13;2.63;;;20.70;43.70;;;;;;5027188;28;20413;-76
2022/01/13 13:07:17;;;;;;;2.45;1.40;;;20.70;43.30;;;;;;5027564;28;20044;-76
2022/01/13 13:10:21;;;;;;;2.95;1.70;;;21.50;44.50;;;;;;5023182;28;20049;-76
2022/01/13 13:13:27;;;;;;;2.45;1.45;;;23.00;42.90;;;;;;5022554;28;20040;-76
2022/01/13 13:16:31;;;;;;;2.97;1.77;;;24.90;42.70;;;;;;5027637;28;20120;-76
2022/01/13 13:19:39;;;;;;;2.67;1.30;;;26.30;41.10;;;;;;5026363;28;20057;-76
2022/01/13 13:22:46;;;;;;;2.53;1.50;;;27.80;40.80;;;;;;5023474;28;20048;-75
2022/01/13 13:25:55;;;;;;;2.50;1.55;;;25.40;39.90;;;;;;5025804;28;20628;-76
2022/01/13 13:29:02;;;;;;;2.50;1.55;;;21.20;42.30;;;;;;5023547;28;20033;-76
2022/01/13 13:32:08;;;;;;;3.35;1.70;;;18.70;44.20;;;;;;5021932;28;20040;-75
2022/01/13 13:35:14;;;;;;;3.75;1.30;;;20.10;43.50;;;;;;5027064;28;20041;-77
2022/01/13 13:38:18;;;;;;;3.17;1.60;;;19.60;44.40;;;;;;5021920;28;20040;-75
2022/01/13 13:41:46;;;;;;;3.60;1.80;;;17.80;45.90;;;;;;5025645;28;20041;-77
2022/01/13 13:44:51;;;;;;;2.20;1.70;;;19.20;44.90;;;;;;5019167;28;20057;-77
2022/01/13 13:47:56;;;;;;;2.15;1.38;;;19.00;44.30;;;;;;5021482;28;20068;-77
2022/01/13 13:51:01;;;;;;;3.08;1.65;;;19.30;43.30;;;;;;5024389;28;20048;-77
2022/01/13 13:54:11;;;;;;;2.75;1.40;;;19.90;43.90;;;;;;5022440;28;20037;-77
2022/01/13 13:57:17;;;;;;;4.85;3.25;;;19.50;43.40;;;;;;5021901;28;20040;-76
2022/01/13 14:00:26;;;;;;;4.00;1.98;;;20.20;44.20;;;;;;5023786;28;20061;-76
2022/01/13 14:03:43;;;;;;;2.60;1.70;;;20.90;44.60;;;;;;5017000;28;20504;-77
2022/01/13 14:06:47;;;;;;;1.73;1.38;;;21.90;41.20;;;;;;5025718;28;20044;-77
2022/01/13 14:10:00;;;;;;;3.50;1.95;;;20.80;42.80;;;;;;5023526;28;20409;-76
2022/01/13 14:13:07;;;;;;;4.82;1.70;;;18.10;45.70;;;;;;5026344;28;20040;-73
2022/01/13 14:16:11;;;;;;;2.88;1.50;;;17.00;46.50;;;;;;5029566;28;20384;-75
2022/01/13 14:19:16;;;;;;;14.55;9.90;;;18.30;46.10;;;;;;5028526;28;20060;-72
2022/01/13 14:22:22;;;;;;;11.20;8.45;;;19.50;45.40;;;;;;5008112;28;20056;-74
2022/01/13 14:25:38;;;;;;;3.40;1.90;;;20.50;44.40;;;;;;5030114;28;20056;-75
2022/01/13 14:28:47;;;;;;;2.78;1.70;;;19.80;43.00;;;;;;5019874;28;20045;-75
2022/01/13 14:31:51;;;;;;;9.18;6.30;;;19.10;45.00;;;;;;5018625;28;20132;-74
2022/01/13 14:34:57;;;;;;;13.20;8.63;;;19.20;45.50;;;;;;5020858;28;20041;-76
2022/01/13 14:38:01;;;;;;;11.20;6.47;;;19.80;45.10;;;;;;5029989;28;20048;-77
2022/01/13 14:41:06;;;;;;;38.38;24.42;;;19.80;44.30;;;;;;5022833;28;20057;-76
2022/01/13 14:44:18;;;;;;;63.92;39.30;;;20.00;44.90;;;;;;5012237;28;20061;-75
2022/01/13 14:47:22;;;;;;;42.38;22.30;;;19.70;45.40;;;;;;5027175;28;20128;-73
2022/01/13 14:50:26;;;;;;;16.92;10.63;;;19.80;48.10;;;;;;5025573;28;20044;-76
2022/01/13 14:53:32;;;;;;;17.52;11.18;;;19.30;48.90;;;;;;5014693;28;20045;-75
2022/01/13 14:56:37;;;;;;;13.70;8.02;;;18.60;49.10;;;;;;5015584;28;20496;-76
2022/01/13 14:59:41;;;;;;;31.50;19.63;;;17.80;47.10;;;;;;5016932;28;20053;-76
2022/01/13 15:02:48;;;;;;;18.83;11.80;;;17.40;49.90;;;;;;5014227;28;20037;-74
2022/01/13 15:05:53;;;;;;;8.70;5.18;;;17.50;50.10;;;;;;5023038;28;20044;-75
2022/01/13 15:08:57;;;;;;;19.20;12.77;;;16.90;49.60;;;;;;5022050;28;20045;-76
2022/01/13 15:12:01;;;;;;;26.52;14.65;;;17.10;49.40;;;;;;5017775;28;20053;-73
2022/01/13 15:15:06;;;;;;;38.25;25.23;;;16.70;50.80;;;;;;5018723;28;20049;-77
2022/01/13 15:18:15;;;;;;;13.77;8.73;;;16.20;50.90;;;;;;5025140;28;20036;-76
2022/01/13 15:21:24;;;;;;;20.00;13.05;;;16.10;51.10;;;;;;5021045;28;20060;-76
2022/01/13 15:24:28;;;;;;;12.52;6.68;;;15.50;52.00;;;;;;5015315;28;20044;-76
2022/01/13 15:27:32;;;;;;;38.90;27.23;;;15.30;53.10;;;;;;5027174;28;20040;-75
2022/01/13 15:30:36;;;;;;;142.13;73.47;;;15.00;52.40;;;;;;5021765;28;20045;-77
2022/01/13 15:33:42;;;;;;;68.13;32.60;;;14.80;52.60;;;;;;5024912;28;20064;-76
2022/01/13 15:36:45;;;;;;;85.20;48.50;;;14.60;53.90;;;;;;5026287;28;20064;-76
2022/01/13 15:39:51;;;;;;;16.70;9.65;;;14.50;53.60;;;;;;5025406;28;20049;-76
2022/01/13 15:42:55;;;;;;;30.35;21.80;;;14.20;53.60;;;;;;5022246;28;20060;-76
2022/01/13 15:45:59;;;;;;;9.13;4.97;;;13.80;54.50;;;;;;5016032;28;20385;-76
2022/01/13 15:49:05;;;;;;;9.10;6.68;;;13.50;55.40;;;;;;5018906;28;20041;-77
2022/01/13 15:52:15;;;;;;;12.68;6.65;;;13.10;56.30;;;;;;5022947;28;20053;-76
2022/01/13 15:55:20;;;;;;;8.68;4.50;;;11.80;57.50;;;;;;5014893;28;20048;-76
2022/01/13 15:58:26;;;;;;;11.88;6.55;;;11.10;57.40;;;;;;5020978;28;20068;-76
2022/01/13 16:01:30;;;;;;;7.10;3.85;;;10.50;60.20;;;;;;5025187;28;20048;-76
2022/01/13 16:04:36;;;;;;;8.43;3.80;;;9.90;61.50;;;;;;5022490;28;20044;-76
2022/01/13 16:07:40;;;;;;;6.32;3.58;;;9.30;62.80;;;;;;5026135;28;20478;-76
2022/01/13 16:10:46;;;;;;;11.23;6.65;;;8.90;63.00;;;;;;5027410;28;20487;-76
2022/01/13 16:13:56;;;;;;;14.40;7.57;;;8.50;64.10;;;;;;5028367;28;20056;-76
2022/01/13 16:17:01;;;;;;;13.25;7.78;;;8.20;64.80;;;;;;5024416;28;20533;-76
2022/01/13 16:20:09;;;;;;;23.05;11.10;;;8.00;65.30;;;;;;5027059;28;20049;-76
2022/01/13 16:23:13;;;;;;;14.43;9.23;;;7.80;66.30;;;;;;5031412;28;20123;-76
2022/01/13 16:26:19;;;;;;;11.68;6.45;;;7.70;67.30;;;;;;5028509;28;20064;-76
2022/01/13 16:29:53;;;;;;;15.52;8.73;;;7.50;68.00;;;;;;5023551;28;20044;-76
2022/01/13 16:32:59;;;;;;;17.50;9.65;;;7.30;68.00;;;;;;5025457;28;20048;-76
2022/01/13 16:36:04;;;;;;;12.13;7.72;;;7.20;67.70;;;;;;5031413;28;20045;-76
2022/01/13 16:39:08;;;;;;;18.65;9.75;;;7.10;67.50;;;;;;5030388;28;20129;-76
2022/01/13 16:42:12;;;;;;;11.57;5.00;;;7.10;66.30;;;;;;5030518;28;20479;-76
2022/01/13 16:45:19;;;;;;;16.38;9.65;;;6.90;67.80;;;;;;5030156;28;20048;-75